createdAt,value
2023-02-26T00:00:30.765Z,11.82
2023-02-26T00:02:32.251Z,8.35
2023-02-26T00:04:33.784Z,12.20
2023-02-26T00:06:38.090Z,10.30
2023-02-26T00:08:39.568Z,12.80
2023-02-26T00:10:41.232Z,10.65
2023-02-26T00:12:44.047Z,12.10
2023-02-26T00:14:45.995Z,10.48
2023-02-26T00:16:54.662Z,9.55
2023-02-26T00:18:59.151Z,10.60
2023-02-26T00:21:01.002Z,9.65
2023-02-26T00:23:02.985Z,8.20
2023-02-26T00:25:04.772Z,8.27
2023-02-26T00:27:06.232Z,10.60
2023-02-26T00:29:08.031Z,9.38
2023-02-26T00:31:10.333Z,11.80
2023-02-26T00:33:12.118Z,10.85
2023-02-26T00:35:16.334Z,10.60
2023-02-26T00:37:23.635Z,9.98
2023-02-26T00:39:57.358Z,10.13
2023-02-26T00:41:59.065Z,9.77
2023-02-26T00:44:01.105Z,10.57
2023-02-26T00:46:27.839Z,8.65
2023-02-26T00:48:59.885Z,11.30
2023-02-26T00:51:29.311Z,11.70
2023-02-26T00:53:48.078Z,16.42
2023-02-26T00:55:49.578Z,6.80
2023-02-26T00:57:51.251Z,10.18
2023-02-26T00:59:52.835Z,8.05
2023-02-26T01:01:54.442Z,10.68
2023-02-26T01:03:57.097Z,7.45
2023-02-26T01:05:59.043Z,9.85
2023-02-26T01:08:10.109Z,10.02
2023-02-26T01:10:12.852Z,5.30
2023-02-26T01:12:14.604Z,6.47
2023-02-26T01:14:16.366Z,5.88
2023-02-26T01:16:25.143Z,7.75
2023-02-26T01:18:37.031Z,8.18
2023-02-26T01:20:49.353Z,7.18
2023-02-26T01:23:01.513Z,8.20
2023-02-26T01:25:06.446Z,8.70
2023-02-26T01:27:08.262Z,8.60
2023-02-26T01:29:11.331Z,5.38
2023-02-26T01:31:55.338Z,6.07
2023-02-26T01:34:05.118Z,9.20
2023-02-26T01:38:32.112Z,5.68
2023-02-26T01:40:36.319Z,5.60
2023-02-26T01:42:42.510Z,9.10
2023-02-26T01:45:02.051Z,7.80
2023-02-26T01:47:20.894Z,8.25
2023-02-26T01:49:23.391Z,15.93
2023-02-26T01:51:55.756Z,7.85
2023-02-26T01:53:57.572Z,5.65
2023-02-26T01:56:04.774Z,4.85
2023-02-26T01:58:06.370Z,8.68
2023-02-26T02:00:10.278Z,7.07
2023-02-26T02:02:15.220Z,8.18
2023-02-26T02:04:16.916Z,5.95
2023-02-26T02:06:23.312Z,7.30
2023-02-26T02:08:25.114Z,5.18
2023-02-26T02:10:27.524Z,7.15
2023-02-26T02:12:35.605Z,8.13
2023-02-26T02:15:05.274Z,7.07
2023-02-26T02:17:23.289Z,8.30
2023-02-26T02:19:51.843Z,10.13
2023-02-26T02:21:55.555Z,6.85
2023-02-26T02:24:08.328Z,6.68
2023-02-26T02:26:35.859Z,5.97
2023-02-26T02:29:07.377Z,7.45
2023-02-26T02:31:25.359Z,10.45
2023-02-26T02:33:36.826Z,10.13
2023-02-26T02:35:49.482Z,9.75
2023-02-26T02:38:05.217Z,9.73
2023-02-26T02:40:16.370Z,10.80
2023-02-26T02:43:02.063Z,10.43
2023-02-26T02:45:11.075Z,10.07
2023-02-26T02:47:15.443Z,7.03
2023-02-26T02:49:34.225Z,8.65
2023-02-26T02:51:47.176Z,13.05
2023-02-26T02:54:08.509Z,7.82
2023-02-26T02:56:30.446Z,9.55
2023-02-26T02:58:37.483Z,8.88
2023-02-26T03:00:43.913Z,7.13
2023-02-26T03:02:54.614Z,8.60
2023-02-26T03:04:56.184Z,7.82
2023-02-26T03:06:57.855Z,8.23
2023-02-26T03:09:01.852Z,12.82
2023-02-26T03:11:03.638Z,8.98
2023-02-26T03:13:05.783Z,9.73
2023-02-26T03:15:08.062Z,7.53
2023-02-26T03:17:32.766Z,9.93
2023-02-26T03:19:58.430Z,12.80
2023-02-26T03:22:18.786Z,8.88
2023-02-26T03:24:32.267Z,11.40
2023-02-26T03:26:42.568Z,9.95
2023-02-26T03:29:19.435Z,10.80
2023-02-26T03:31:34.070Z,11.68
2023-02-26T03:33:52.501Z,5.35
2023-02-26T03:36:18.378Z,7.82
2023-02-26T03:38:33.318Z,10.77
2023-02-26T03:40:45.364Z,8.65
2023-02-26T03:43:05.316Z,11.95
2023-02-26T03:45:18.193Z,8.60
2023-02-26T03:47:20.474Z,6.25
2023-02-26T03:49:31.113Z,5.57
2023-02-26T03:51:33.928Z,5.47
2023-02-26T03:54:10.930Z,5.13
2023-02-26T03:56:17.040Z,8.88
2023-02-26T03:58:18.891Z,9.20
2023-02-26T04:00:21.013Z,6.60
2023-02-26T04:02:35.083Z,10.35
2023-02-26T04:04:45.691Z,7.97
2023-02-26T04:06:48.090Z,8.10
2023-02-26T04:08:50.252Z,9.52
2023-02-26T04:10:57.717Z,9.52
2023-02-26T04:13:01.032Z,12.90
2023-02-26T04:15:02.808Z,10.15
2023-02-26T04:17:05.549Z,6.47
2023-02-26T04:19:07.102Z,9.20
2023-02-26T04:21:14.824Z,8.23
2023-02-26T04:23:16.545Z,11.18
2023-02-26T04:25:18.230Z,9.73
2023-02-26T04:27:19.758Z,10.27
2023-02-26T04:29:21.267Z,8.63
2023-02-26T04:31:23.028Z,5.68
2023-02-26T04:33:24.653Z,12.55
2023-02-26T04:35:26.225Z,8.30
2023-02-26T04:37:27.819Z,6.22
2023-02-26T04:39:29.433Z,7.63
2023-02-26T04:41:31.091Z,14.23
2023-02-26T04:43:33.038Z,13.63
2023-02-26T04:45:34.604Z,9.43
2023-02-26T04:47:36.787Z,9.65
2023-02-26T04:49:38.716Z,9.38
2023-02-26T04:51:40.258Z,8.05
2023-02-26T04:53:41.865Z,10.13
2023-02-26T04:55:43.511Z,9.52
2023-02-26T04:57:45.096Z,10.82
2023-02-26T04:59:46.609Z,9.35
2023-02-26T05:01:48.174Z,13.15
2023-02-26T05:03:49.801Z,8.40
2023-02-26T05:05:51.479Z,10.10
2023-02-26T05:07:56.053Z,10.07
2023-02-26T05:09:57.619Z,6.78
2023-02-26T05:11:59.172Z,11.48
2023-02-26T05:14:00.727Z,6.32
2023-02-26T05:16:02.619Z,9.70
2023-02-26T05:18:04.344Z,7.63
2023-02-26T05:20:08.213Z,8.00
2023-02-26T05:22:09.714Z,11.85
2023-02-26T05:24:11.243Z,7.03
2023-02-26T05:26:12.765Z,8.13
2023-02-26T05:28:14.664Z,7.95
2023-02-26T05:30:17.340Z,9.20
2023-02-26T05:32:19.299Z,4.28
2023-02-26T05:34:20.925Z,5.68
2023-02-26T05:36:22.624Z,4.32
2023-02-26T05:38:24.248Z,14.07
2023-02-26T05:40:25.822Z,6.22
2023-02-26T05:42:27.400Z,8.48
2023-02-26T05:44:28.973Z,5.18
2023-02-26T05:46:30.638Z,6.43
2023-02-26T05:48:32.425Z,7.88
2023-02-26T05:50:34.155Z,10.45
2023-02-26T05:52:35.692Z,6.50
2023-02-26T05:54:37.177Z,5.93
2023-02-26T05:56:38.761Z,11.10
2023-02-26T05:58:40.319Z,9.00
2023-02-26T06:00:42.182Z,9.70
2023-02-26T06:02:43.849Z,7.15
2023-02-26T06:04:45.540Z,5.30
2023-02-26T06:06:47.078Z,9.90
2023-02-26T06:08:48.680Z,7.90
2023-02-26T06:10:51.622Z,5.40
2023-02-26T06:12:53.360Z,8.02
2023-02-26T06:14:54.968Z,8.35
2023-02-26T06:16:56.510Z,10.93
2023-02-26T06:18:58.316Z,6.43
2023-02-26T06:21:00.918Z,5.03
2023-02-26T06:23:02.698Z,6.13
2023-02-26T06:25:05.735Z,14.48
2023-02-26T06:27:07.351Z,8.18
2023-02-26T06:29:08.879Z,10.77
2023-02-26T06:31:10.676Z,10.48
2023-02-26T06:33:20.175Z,9.63
2023-02-26T06:35:21.747Z,11.35
2023-02-26T06:37:23.579Z,10.18
2023-02-26T06:39:25.098Z,4.10
2023-02-26T06:41:26.593Z,6.60
2023-02-26T06:43:28.954Z,5.78
2023-02-26T06:45:30.589Z,8.65
2023-02-26T06:47:32.179Z,8.60
2023-02-26T06:49:33.717Z,8.52
2023-02-26T06:51:35.957Z,7.38
2023-02-26T06:53:38.037Z,7.05
2023-02-26T06:55:44.858Z,4.80
2023-02-26T06:57:46.359Z,10.02
2023-02-26T06:59:47.952Z,7.05
2023-02-26T07:01:49.479Z,12.13
2023-02-26T07:03:51.058Z,3.78
2023-02-26T07:08:15.298Z,6.88
2023-02-26T07:10:17.188Z,5.07
2023-02-26T07:12:18.963Z,6.05
2023-02-26T07:14:20.585Z,7.95
2023-02-26T07:16:22.259Z,5.78
2023-02-26T07:18:24.485Z,6.80
2023-02-26T07:20:27.367Z,6.07
2023-02-26T07:22:28.901Z,5.90
2023-02-26T07:24:30.535Z,7.90
2023-02-26T07:26:32.080Z,4.63
2023-02-26T07:28:36.601Z,13.57
2023-02-26T07:30:46.441Z,30.88
2023-02-26T07:32:48.087Z,31.35
2023-02-26T07:34:49.665Z,135.30
2023-02-26T07:36:51.345Z,264.25
2023-02-26T07:38:52.885Z,584.17
2023-02-26T07:40:58.038Z,160.85
2023-02-26T07:43:00.282Z,27.83
2023-02-26T07:45:02.544Z,100.45
2023-02-26T07:47:04.386Z,32.55
2023-02-26T07:49:06.031Z,76.35
2023-02-26T07:51:08.022Z,16.92
2023-02-26T07:53:10.174Z,6.80
2023-02-26T07:55:12.604Z,13.57
2023-02-26T07:57:14.259Z,13.10
2023-02-26T07:59:15.899Z,9.18
2023-02-26T08:01:17.516Z,7.15
2023-02-26T08:03:27.760Z,7.03
2023-02-26T08:05:30.199Z,4.20
2023-02-26T08:07:31.961Z,4.38
2023-02-26T08:09:33.532Z,5.88
2023-02-26T08:11:39.639Z,3.63
2023-02-26T08:13:41.138Z,5.53
2023-02-26T08:18:05.417Z,4.20
2023-02-26T08:20:08.654Z,5.53
2023-02-26T08:22:10.169Z,6.60
2023-02-26T08:24:13.585Z,12.43
2023-02-26T08:26:15.197Z,8.98
2023-02-26T08:28:16.822Z,7.65
2023-02-26T08:30:18.749Z,5.10
2023-02-26T08:32:22.974Z,8.88
2023-02-26T08:34:24.710Z,17.17
2023-02-26T08:36:26.822Z,6.45
2023-02-26T08:38:29.715Z,3.97
2023-02-26T08:40:37.450Z,3.10
2023-02-26T08:42:38.969Z,3.70
2023-02-26T08:44:40.493Z,3.35
2023-02-26T08:46:42.062Z,4.15
2023-02-26T08:48:43.673Z,8.90
2023-02-26T08:50:46.037Z,15.65
2023-02-26T08:52:47.910Z,54.35
2023-02-26T08:54:49.445Z,21.02
2023-02-26T08:56:53.393Z,6.50
2023-02-26T08:58:54.997Z,6.57
2023-02-26T09:00:56.678Z,20.55
2023-02-26T09:06:18.870Z,51.83
2023-02-26T09:08:21.335Z,31.33
2023-02-26T09:10:22.985Z,33.20
2023-02-26T09:13:18.567Z,6.68
2023-02-26T09:15:20.322Z,7.85
2023-02-26T09:17:21.825Z,5.05
2023-02-26T09:19:23.350Z,4.55
2023-02-26T09:21:24.883Z,8.13
2023-02-26T09:23:27.491Z,8.65
2023-02-26T09:25:29.140Z,8.82
2023-02-26T09:27:30.697Z,15.10
2023-02-26T09:29:32.330Z,14.40
2023-02-26T09:31:34.141Z,6.45
2023-02-26T09:33:39.212Z,24.42
2023-02-26T09:35:40.986Z,10.20
2023-02-26T09:37:42.489Z,11.43
2023-02-26T09:39:44.000Z,7.88
2023-02-26T09:41:52.240Z,5.70
2023-02-26T09:44:13.244Z,5.22
2023-02-26T09:46:47.194Z,4.07
2023-02-26T09:48:50.865Z,10.27
2023-02-26T09:50:56.169Z,7.70
2023-02-26T09:53:07.137Z,7.78
2023-02-26T09:55:17.733Z,2.55
2023-02-26T09:57:27.180Z,4.80
2023-02-26T09:59:33.418Z,4.70
2023-02-26T10:01:48.787Z,5.60
2023-02-26T10:04:11.079Z,6.50
2023-02-26T10:06:25.457Z,4.80
2023-02-26T10:08:56.482Z,9.70
2023-02-26T10:11:07.815Z,6.70
2023-02-26T10:13:23.047Z,4.30
2023-02-26T10:15:44.017Z,17.48
2023-02-26T10:17:57.285Z,13.43
2023-02-26T10:20:05.289Z,9.25
2023-02-26T10:22:17.879Z,9.35
2023-02-26T10:24:26.996Z,8.60
2023-02-26T10:26:43.428Z,3.58
2023-02-26T10:28:54.920Z,7.80
2023-02-26T10:31:17.357Z,8.75
2023-02-26T10:33:33.850Z,2.75
2023-02-26T10:35:42.374Z,4.75
2023-02-26T10:37:52.905Z,3.55
2023-02-26T10:40:22.006Z,3.80
2023-02-26T10:42:28.433Z,4.88
2023-02-26T10:44:41.922Z,4.43
2023-02-26T10:47:28.772Z,6.63
2023-02-26T10:49:42.788Z,5.15
2023-02-26T10:51:44.868Z,11.63
2023-02-26T10:53:57.011Z,4.78
2023-02-26T10:56:11.264Z,3.45
2023-02-26T10:58:18.135Z,4.15
2023-02-26T11:00:23.174Z,8.45
2023-02-26T11:02:40.209Z,4.38
2023-02-26T11:04:59.289Z,2.42
2023-02-26T11:07:09.677Z,8.60
2023-02-26T11:09:32.618Z,2.97
2023-02-26T11:11:48.886Z,4.03
2023-02-26T11:13:53.482Z,9.57
2023-02-26T11:16:07.485Z,5.45
2023-02-26T11:18:32.338Z,7.40
2023-02-26T11:20:42.135Z,7.30
2023-02-26T11:22:54.013Z,9.80
2023-02-26T11:24:57.405Z,11.10
2023-02-26T11:27:04.316Z,6.88
2023-02-26T11:29:06.499Z,5.82
2023-02-26T11:31:11.377Z,6.63
2023-02-26T11:33:27.145Z,7.95
2023-02-26T11:35:28.701Z,5.13
2023-02-26T11:37:36.096Z,15.13
2023-02-26T11:39:44.808Z,7.40
2023-02-26T11:41:48.984Z,9.30
2023-02-26T11:44:16.285Z,6.78
2023-02-26T11:46:18.642Z,7.45
2023-02-26T11:48:24.672Z,10.52
2023-02-26T11:50:28.414Z,2.92
2023-02-26T11:52:34.928Z,8.25
2023-02-26T11:54:39.140Z,17.35
2023-02-26T11:56:43.851Z,24.70
2023-02-26T11:58:54.997Z,15.60
2023-02-26T12:00:59.498Z,9.07
2023-02-26T12:03:08.138Z,5.72
2023-02-26T12:05:16.180Z,3.53
2023-02-26T12:07:18.261Z,7.00
2023-02-26T12:09:21.024Z,5.70
2023-02-26T12:11:39.325Z,3.42
2023-02-26T12:14:08.566Z,1.77
2023-02-26T12:16:25.650Z,2.85
2023-02-26T12:18:46.012Z,7.53
2023-02-26T12:21:12.168Z,5.50
2023-02-26T12:23:21.969Z,10.52
2023-02-26T12:25:48.638Z,4.78
2023-02-26T12:28:25.904Z,5.30
2023-02-26T12:30:42.523Z,2.60
2023-02-26T12:33:23.389Z,8.07
2023-02-26T12:35:44.597Z,5.07
2023-02-26T12:37:58.925Z,5.35
2023-02-26T12:40:19.449Z,13.07
2023-02-26T12:43:11.970Z,12.43
2023-02-26T12:45:22.402Z,1.75
2023-02-26T12:48:05.558Z,3.55
2023-02-26T12:50:28.729Z,15.65
2023-02-26T12:52:46.772Z,8.25
2023-02-26T12:55:45.433Z,10.15
2023-02-26T12:58:44.401Z,7.25
2023-02-26T13:00:57.815Z,5.15
2023-02-26T13:03:17.613Z,7.93
2023-02-26T13:05:56.832Z,10.05
2023-02-26T13:08:12.355Z,5.60
2023-02-26T13:10:41.179Z,7.15
2023-02-26T13:12:55.262Z,3.17
2023-02-26T13:15:15.939Z,6.13
2023-02-26T13:17:27.006Z,5.93
2023-02-26T13:19:50.266Z,5.47
2023-02-26T13:21:58.246Z,5.93
2023-02-26T13:24:06.714Z,7.10
2023-02-26T13:26:11.557Z,11.40
2023-02-26T13:28:39.764Z,5.18
2023-02-26T13:30:48.350Z,5.63
2023-02-26T13:32:54.494Z,5.88
2023-02-26T13:35:04.831Z,4.75
2023-02-26T13:37:15.242Z,8.90
2023-02-26T13:39:34.749Z,10.25
2023-02-26T13:41:57.297Z,8.98
2023-02-26T13:44:02.511Z,19.35
2023-02-26T13:46:07.904Z,5.90
2023-02-26T13:48:15.336Z,5.50
2023-02-26T13:50:35.614Z,6.95
2023-02-26T13:53:16.466Z,8.88
2023-02-26T13:55:48.723Z,6.93
2023-02-26T13:57:54.080Z,7.63
2023-02-26T14:00:00.634Z,6.80
2023-02-26T14:02:23.325Z,8.40
2023-02-26T14:04:29.853Z,7.28
2023-02-26T14:06:37.492Z,20.55
2023-02-26T14:08:45.075Z,6.70
2023-02-26T14:10:49.456Z,8.65
2023-02-26T14:13:24.622Z,5.25
2023-02-26T14:15:40.704Z,15.18
2023-02-26T14:18:02.149Z,9.75
2023-02-26T14:20:09.622Z,6.95
2023-02-26T14:22:23.733Z,4.10
2023-02-26T14:24:36.422Z,4.70
2023-02-26T14:26:38.296Z,6.68
2023-02-26T14:28:57.954Z,16.00
2023-02-26T14:33:16.941Z,6.82
2023-02-26T14:35:35.173Z,17.80
2023-02-26T14:38:16.428Z,18.88
2023-02-26T14:40:21.604Z,18.60
2023-02-26T14:42:46.506Z,25.98
2023-02-26T14:44:53.646Z,13.00
2023-02-26T14:46:55.744Z,8.73
2023-02-26T14:49:04.001Z,12.98
2023-02-26T14:51:18.169Z,50.42
2023-02-26T14:53:49.116Z,16.58
2023-02-26T14:56:17.609Z,16.40
2023-02-26T14:58:37.385Z,13.57
2023-02-26T15:01:02.767Z,23.08
2023-02-26T15:03:30.605Z,69.07
2023-02-26T15:05:54.072Z,9.27
2023-02-26T15:08:15.815Z,12.88
2023-02-26T15:10:26.041Z,18.17
2023-02-26T15:12:45.067Z,5.88
2023-02-26T15:14:58.675Z,13.88
2023-02-26T15:17:27.343Z,11.88
2023-02-26T15:19:37.952Z,18.47
2023-02-26T15:22:15.591Z,9.25
2023-02-26T15:24:17.300Z,9.00
2023-02-26T15:26:32.705Z,9.70
2023-02-26T15:28:40.401Z,10.88
2023-02-26T15:30:45.545Z,10.85
2023-02-26T15:32:53.680Z,8.63
2023-02-26T15:35:12.046Z,9.70
2023-02-26T15:37:33.767Z,23.05
2023-02-26T15:39:48.329Z,33.65
2023-02-26T15:41:58.880Z,21.00
2023-02-26T15:44:11.058Z,25.65
2023-02-26T15:46:12.989Z,56.33
2023-02-26T15:48:18.775Z,61.42
2023-02-26T15:50:22.744Z,124.95
2023-02-26T15:52:26.375Z,96.55
2023-02-26T15:54:45.322Z,59.50
2023-02-26T15:56:48.028Z,13.35
2023-02-26T15:58:54.153Z,32.97
2023-02-26T16:00:56.276Z,19.10
2023-02-26T16:02:58.958Z,14.15
2023-02-26T16:05:02.491Z,15.95
2023-02-26T16:07:04.225Z,12.50
2023-02-26T16:09:15.537Z,10.32
2023-02-26T16:11:18.422Z,8.57
2023-02-26T16:13:29.105Z,14.82
2023-02-26T16:15:34.588Z,25.13
2023-02-26T16:17:42.629Z,12.40
2023-02-26T16:19:47.256Z,25.70
2023-02-26T16:21:50.873Z,36.80
2023-02-26T16:23:57.366Z,9.23
2023-02-26T16:26:01.860Z,15.57
2023-02-26T16:28:07.817Z,14.60
2023-02-26T16:30:18.962Z,13.48
2023-02-26T16:32:20.969Z,9.75
2023-02-26T16:34:47.364Z,10.05
2023-02-26T16:36:49.726Z,6.05
2023-02-26T16:38:59.937Z,9.07
2023-02-26T16:41:08.285Z,14.70
2023-02-26T16:43:35.493Z,63.63
2023-02-26T16:45:37.306Z,60.17
2023-02-26T16:47:40.315Z,30.45
2023-02-26T16:49:45.723Z,23.33
2023-02-26T16:51:48.280Z,12.13
2023-02-26T16:53:58.235Z,10.30
2023-02-26T16:56:00.755Z,7.60
2023-02-26T16:58:07.401Z,11.75
2023-02-26T17:00:17.834Z,8.90
2023-02-26T17:02:29.704Z,46.45
2023-02-26T17:04:39.079Z,75.80
2023-02-26T17:06:42.235Z,40.60
2023-02-26T17:08:57.053Z,13.80
2023-02-26T17:11:06.659Z,10.68
2023-02-26T17:13:19.263Z,9.68
2023-02-26T17:15:27.826Z,11.18
2023-02-26T17:17:29.590Z,7.65
2023-02-26T17:19:31.115Z,11.50
2023-02-26T17:21:32.933Z,8.75
2023-02-26T17:23:37.317Z,8.95
2023-02-26T17:25:42.578Z,7.55
2023-02-26T17:27:45.586Z,8.73
2023-02-26T17:29:51.004Z,8.38
2023-02-26T17:31:53.129Z,10.32
2023-02-26T17:33:54.887Z,10.23
2023-02-26T17:36:02.832Z,14.30
2023-02-26T17:38:04.735Z,11.77
2023-02-26T17:40:24.670Z,13.82
2023-02-26T17:42:26.404Z,38.45
2023-02-26T17:44:29.413Z,75.32
2023-02-26T17:46:31.034Z,64.78
2023-02-26T17:48:32.587Z,68.95
2023-02-26T17:50:50.064Z,58.78
2023-02-26T17:52:51.636Z,64.28
2023-02-26T17:54:53.307Z,56.63
2023-02-26T17:56:54.909Z,60.40
2023-02-26T17:58:58.262Z,54.92
2023-02-26T18:01:01.848Z,54.78
2023-02-26T18:03:04.697Z,48.78
2023-02-26T18:05:06.661Z,54.85
2023-02-26T18:07:10.569Z,70.65
2023-02-26T18:09:13.254Z,47.90
2023-02-26T18:11:16.348Z,49.22
2023-02-26T18:13:17.849Z,61.33
2023-02-26T18:15:19.784Z,55.90
2023-02-26T18:17:27.551Z,52.90
2023-02-26T18:19:29.145Z,48.17
2023-02-26T18:21:31.175Z,39.95
2023-02-26T18:23:32.670Z,33.33
2023-02-26T18:25:37.060Z,53.20
2023-02-26T18:27:38.651Z,71.22
2023-02-26T18:29:40.667Z,56.50
2023-02-26T18:31:42.512Z,49.58
2023-02-26T18:33:44.652Z,235.60
2023-02-26T18:35:57.141Z,69.88
2023-02-26T18:37:58.819Z,101.00
2023-02-26T18:40:00.702Z,72.32
2023-02-26T18:42:02.397Z,54.95
2023-02-26T18:44:04.359Z,53.05
2023-02-26T18:46:06.084Z,57.40
2023-02-26T18:48:09.328Z,83.53
2023-02-26T18:50:18.501Z,55.83
2023-02-26T18:52:20.270Z,55.22
2023-02-26T18:54:21.837Z,39.75
2023-02-26T18:56:23.467Z,38.97
2023-02-26T18:58:25.385Z,49.58
2023-02-26T19:00:28.701Z,62.47
2023-02-26T19:02:30.656Z,91.00
2023-02-26T19:04:32.689Z,95.90
2023-02-26T19:06:34.378Z,78.28
2023-02-26T19:08:36.231Z,48.50
2023-02-26T19:10:37.925Z,85.00
2023-02-26T19:12:39.527Z,197.27
2023-02-26T19:14:41.204Z,165.90
2023-02-26T19:16:43.801Z,136.30
2023-02-26T19:18:45.346Z,189.77
2023-02-26T19:20:47.243Z,145.27
2023-02-26T19:22:49.690Z,100.50
2023-02-26T19:24:51.456Z,71.22
2023-02-26T19:26:53.062Z,149.82
2023-02-26T19:28:54.657Z,127.53
2023-02-26T19:30:56.451Z,159.85
2023-02-26T19:32:58.301Z,158.68
2023-02-26T19:35:00.260Z,169.43
2023-02-26T19:37:01.988Z,124.60
2023-02-26T19:39:05.520Z,69.28
2023-02-26T19:41:08.060Z,86.72
2023-02-26T19:43:10.630Z,86.13
2023-02-26T19:45:14.362Z,51.67
2023-02-26T19:47:15.898Z,43.00
2023-02-26T19:49:17.799Z,47.53
2023-02-26T19:51:19.447Z,48.85
2023-02-26T19:53:21.629Z,52.20
2023-02-26T19:55:23.161Z,72.85
2023-02-26T19:57:24.802Z,56.88
2023-02-26T19:59:26.575Z,71.35
2023-02-26T20:01:28.622Z,104.72
2023-02-26T20:03:31.550Z,90.90
2023-02-26T20:05:33.201Z,222.25
2023-02-26T20:07:34.989Z,286.00
2023-02-26T20:09:36.632Z,267.67
2023-02-26T20:11:39.697Z,160.52
2023-02-26T20:13:41.516Z,68.95
2023-02-26T20:15:43.575Z,95.88
2023-02-26T20:17:45.418Z,54.15
2023-02-26T20:19:47.489Z,30.98
2023-02-26T20:21:49.601Z,19.38
2023-02-26T20:23:51.203Z,23.50
2023-02-26T20:25:56.981Z,22.63
2023-02-26T20:27:58.536Z,85.20
2023-02-26T20:30:00.052Z,119.70
2023-02-26T20:32:01.808Z,65.82
2023-02-26T20:34:03.376Z,21.65
2023-02-26T20:36:08.952Z,92.75
2023-02-26T20:38:11.209Z,37.00
2023-02-26T20:40:13.118Z,44.63
2023-02-26T20:42:14.700Z,44.53
2023-02-26T20:44:16.634Z,36.95
2023-02-26T20:46:18.359Z,24.83
2023-02-26T20:48:19.939Z,20.80
2023-02-26T20:50:21.718Z,28.63
2023-02-26T20:52:24.216Z,24.83
2023-02-26T20:54:26.247Z,32.88
2023-02-26T20:56:27.795Z,24.77
2023-02-26T20:58:29.356Z,16.75
2023-02-26T21:00:31.315Z,23.77
2023-02-26T21:02:32.898Z,21.27
2023-02-26T21:04:34.481Z,25.35
2023-02-26T21:06:36.094Z,18.55
2023-02-26T21:08:37.632Z,23.90
2023-02-26T21:10:41.118Z,20.88
2023-02-26T21:12:42.714Z,19.50
2023-02-26T21:14:44.745Z,18.30
2023-02-26T21:16:46.468Z,27.25
2023-02-26T21:18:48.030Z,27.17
2023-02-26T21:20:50.179Z,24.10
2023-02-26T21:22:51.705Z,19.95
2023-02-26T21:24:53.428Z,30.17
2023-02-26T21:26:55.066Z,24.58
2023-02-26T21:28:56.638Z,30.75
2023-02-26T21:30:58.617Z,19.20
2023-02-26T21:33:00.128Z,14.98
2023-02-26T21:35:01.788Z,17.70
2023-02-26T21:37:06.646Z,36.53
2023-02-26T21:39:08.144Z,23.30
2023-02-26T21:41:09.736Z,19.52
2023-02-26T21:43:11.370Z,25.90
2023-02-26T21:45:13.091Z,64.28
2023-02-26T21:47:14.697Z,41.13
2023-02-26T21:49:16.327Z,45.63
2023-02-26T21:51:17.892Z,41.50
2023-02-26T21:53:19.442Z,22.17
2023-02-26T21:55:21.043Z,27.70
2023-02-26T21:57:24.506Z,48.50
2023-02-26T21:59:26.224Z,56.97
2023-02-26T22:01:27.963Z,62.58
2023-02-26T22:03:29.684Z,59.35
2023-02-26T22:05:31.177Z,16.77
2023-02-26T22:07:32.721Z,87.10
2023-02-26T22:09:35.000Z,57.15
2023-02-26T22:11:36.643Z,31.75
2023-02-26T22:13:38.245Z,62.38
2023-02-26T22:15:39.830Z,35.53
2023-02-26T22:17:41.378Z,27.45
2023-02-26T22:19:42.896Z,45.75
2023-02-26T22:21:44.693Z,132.20
2023-02-26T22:23:46.269Z,127.05
2023-02-26T22:25:47.958Z,187.13
2023-02-26T22:27:50.366Z,82.50
2023-02-26T22:29:51.898Z,54.65
2023-02-26T22:31:54.089Z,51.83
2023-02-26T22:33:57.337Z,33.15
2023-02-26T22:36:00.041Z,30.33
2023-02-26T22:38:01.572Z,22.02
2023-02-26T22:40:04.128Z,24.08
2023-02-26T22:42:05.760Z,20.10
2023-02-26T22:44:07.289Z,11.73
2023-02-26T22:46:08.939Z,19.83
2023-02-26T22:48:10.537Z,26.65
2023-02-26T22:50:13.425Z,21.80
2023-02-26T22:52:15.171Z,15.85
2023-02-26T22:54:16.708Z,24.55
2023-02-26T22:56:18.306Z,15.80
2023-02-26T22:58:19.890Z,7.13
2023-02-26T23:00:21.651Z,19.58
2023-02-26T23:02:23.641Z,14.95
2023-02-26T23:04:25.228Z,25.75
2023-02-26T23:06:26.910Z,12.75
2023-02-26T23:08:28.582Z,14.15
2023-02-26T23:10:30.128Z,22.90
2023-02-26T23:12:31.908Z,23.27
2023-02-26T23:14:33.675Z,25.27
2023-02-26T23:16:35.320Z,30.65
2023-02-26T23:18:39.288Z,20.75
2023-02-26T23:20:41.327Z,29.35
2023-02-26T23:22:43.885Z,23.48
2023-02-26T23:24:46.570Z,29.77
2023-02-26T23:26:48.266Z,18.73
2023-02-26T23:28:50.126Z,4.43
2023-02-26T23:30:51.716Z,5.88
2023-02-26T23:32:55.081Z,7.30
2023-02-26T23:34:56.662Z,5.45
2023-02-26T23:36:58.201Z,6.32
2023-02-26T23:38:59.721Z,7.13
2023-02-26T23:41:01.226Z,5.50
2023-02-26T23:43:02.835Z,8.82
2023-02-26T23:45:04.891Z,10.45
2023-02-26T23:47:06.930Z,11.57
2023-02-26T23:49:09.596Z,16.08
2023-02-26T23:51:11.159Z,9.30
2023-02-26T23:53:12.670Z,8.57
2023-02-26T23:55:14.659Z,4.18
2023-02-26T23:57:16.130Z,5.45
2023-02-26T23:59:18.440Z,5.63
